Time;durP1;ratioP1;P1;durP2;ratioP2;P2;SDS_P1;SDS_P2;PMS_P1;PMS_P2;Temp;Humidity;BMP_temperature;BMP_pressure;BME280_temperature;BME280_humidity;BME280_pressure;Samples;Min_cycle;Max_cycle;Signal;HPM_P1;HPM_P2
2023/01/19 00:02:17;;;;;;;8.23;5.22;;;;;;;;;;5120090;28;20027;-84
2023/01/19 00:04:43;;;;;;;8.35;5.38;;;;;;;;;;5117973;28;20046;-82
2023/01/19 00:07:08;;;;;;;8.65;5.50;;;;;;;;;;5119632;28;20036;-84
2023/01/19 00:09:37;;;;;;;9.38;6.10;;;;;;;;;;5120517;28;20042;-84
2023/01/19 00:12:03;;;;;;;8.75;5.88;;;;;;;;;;5101843;28;20092;-84
2023/01/19 00:14:29;;;;;;;7.70;5.15;;;;;;;;;;5119225;28;20031;-84
2023/01/19 00:16:54;;;;;;;10.00;6.32;;;;;;;;;;5120096;28;20089;-84
2023/01/19 00:19:19;;;;;;;10.43;6.32;;;;;;;;;;5102393;28;20036;-84
2023/01/19 00:21:45;;;;;;;9.05;5.90;;;;;;;;;;5120025;28;20444;-84
2023/01/19 00:24:12;;;;;;;11.32;6.22;;;;;;;;;;5101678;28;20039;-83
2023/01/19 00:26:41;;;;;;;9.38;5.63;;;;;;;;;;5101389;28;20027;-83
2023/01/19 00:29:12;;;;;;;8.90;5.72;;;;;;;;;;5102066;28;20483;-86
2023/01/19 00:31:38;;;;;;;10.43;6.75;;;;;;;;;;5120238;28;20055;-84
2023/01/19 00:34:04;;;;;;;11.10;6.63;;;;;;;;;;5119651;28;20052;-83
2023/01/19 00:36:30;;;;;;;9.75;6.05;;;;;;;;;;5123496;28;20044;-83
2023/01/19 00:38:55;;;;;;;9.88;6.40;;;;;;;;;;5115757;28;20038;-86
2023/01/19 00:42:38;;;;;;;9.65;6.40;;;;;;;;;;5119198;28;20035;-84
2023/01/19 00:44:07;;;;;;;11.93;6.88;;;;;;;;;;5120307;28;20039;-85
2023/01/19 00:46:33;;;;;;;11.98;6.75;;;;;;;;;;5119578;28;20088;-83
2023/01/19 00:48:58;;;;;;;10.13;6.47;;;;;;;;;;5101006;28;20082;-83
2023/01/19 00:51:24;;;;;;;11.63;6.57;;;;;;;;;;5101068;28;20035;-84
2023/01/19 00:53:49;;;;;;;11.00;6.72;;;;;;;;;;5118785;28;20027;-86
2023/01/19 00:56:16;;;;;;;12.13;7.05;;;;;;;;;;5118646;28;20034;-84
2023/01/19 00:58:41;;;;;;;11.82;7.40;;;;;;;;;;5117892;28;20040;-84
2023/01/19 01:01:07;;;;;;;12.77;7.25;;;;;;;;;;5114767;28;20031;-84
2023/01/19 01:03:33;;;;;;;11.60;7.05;;;;;;;;;;5121138;28;20536;-80
2023/01/19 01:05:58;;;;;;;12.32;6.82;;;;;;;;;;5123461;28;20036;-83
2023/01/19 01:08:24;;;;;;;9.25;6.75;;;;;;;;;;5100002;28;20039;-83
2023/01/19 01:10:50;;;;;;;11.10;6.97;;;;;;;;;;5118700;28;20415;-83
2023/01/19 01:13:16;;;;;;;10.82;6.95;;;;;;;;;;5100566;28;20391;-83
2023/01/19 01:15:42;;;;;;;11.10;6.88;;;;;;;;;;5099198;28;20061;-82
2023/01/19 01:18:07;;;;;;;11.02;7.30;;;;;;;;;;5118179;28;20038;-82
2023/01/19 01:20:36;;;;;;;10.85;6.78;;;;;;;;;;5099258;28;20039;-82
2023/01/19 01:23:02;;;;;;;9.77;6.10;;;;;;;;;;5099297;28;20548;-82
2023/01/19 01:25:29;;;;;;;10.48;6.72;;;;;;;;;;5117331;28;20032;-82
2023/01/19 01:27:55;;;;;;;8.93;5.90;;;;;;;;;;5099968;28;20530;-84
2023/01/19 01:30:21;;;;;;;11.40;6.63;;;;;;;;;;5083469;28;20040;-84
2023/01/19 01:32:47;;;;;;;11.35;6.47;;;;;;;;;;5118410;28;20031;-84
2023/01/19 01:35:13;;;;;;;10.35;6.45;;;;;;;;;;5082893;28;20031;-86
2023/01/19 01:37:39;;;;;;;9.38;6.13;;;;;;;;;;5118334;28;20040;-82
2023/01/19 01:40:06;;;;;;;9.52;6.25;;;;;;;;;;5106861;28;20036;-84
2023/01/19 01:42:32;;;;;;;10.93;6.60;;;;;;;;;;5098794;28;20043;-86
2023/01/19 01:45:00;;;;;;;9.90;6.05;;;;;;;;;;5116451;28;20059;-85
2023/01/19 01:47:36;;;;;;;9.55;6.50;;;;;;;;;;5098446;28;20023;-84
2023/01/19 01:50:21;;;;;;;8.57;5.28;;;;;;;;;;5117045;28;20027;-85
2023/01/19 01:53:04;;;;;;;8.63;5.75;;;;;;;;;;5115672;28;20449;-84
2023/01/19 01:55:31;;;;;;;7.72;5.20;;;;;;;;;;5097253;28;20055;-83
2023/01/19 01:58:01;;;;;;;8.00;5.38;;;;;;;;;;5114787;28;20039;-82
2023/01/19 02:02:49;;;;;;;7.63;5.05;;;;;;;;;;5095859;28;20032;-84
2023/01/19 02:03:14;;;;;;;8.85;4.88;;;;;;;;;;5114178;28;20038;-83
2023/01/19 02:05:40;;;;;;;7.32;4.80;;;;;;;;;;5096056;28;20035;-82
2023/01/19 02:13:43;;;;;;;8.90;5.47;;;;;;;;;;5113698;28;20110;-83
2023/01/19 02:16:10;;;;;;;7.30;4.95;;;;;;;;;;5113984;28;20035;-85
2023/01/19 02:18:36;;;;;;;9.27;5.40;;;;;;;;;;5113698;28;20035;-81
2023/01/19 02:21:22;;;;;;;9.10;5.45;;;;;;;;;;5120219;28;20032;-82
2023/01/19 02:23:53;;;;;;;6.68;4.75;;;;;;;;;;5084278;28;20050;-84
2023/01/19 02:26:28;;;;;;;8.48;5.40;;;;;;;;;;5098949;28;20066;-84
2023/01/19 02:28:59;;;;;;;8.05;5.05;;;;;;;;;;5120804;28;20038;-84
2023/01/19 02:31:27;;;;;;;8.45;5.80;;;;;;;;;;5103885;28;20035;-84
2023/01/19 02:33:54;;;;;;;9.40;6.05;;;;;;;;;;5122241;28;20050;-85
2023/01/19 02:36:24;;;;;;;7.82;5.22;;;;;;;;;;5122313;28;20024;-84
2023/01/19 02:38:55;;;;;;;9.98;5.90;;;;;;;;;;5122041;28;20035;-83
2023/01/19 02:41:25;;;;;;;9.23;5.88;;;;;;;;;;5086821;28;20047;-83
2023/01/19 02:43:51;;;;;;;9.13;5.93;;;;;;;;;;5127263;28;20084;-84
2023/01/19 02:46:17;;;;;;;11.73;6.60;;;;;;;;;;5119093;28;20080;-84
2023/01/19 02:48:42;;;;;;;10.82;7.03;;;;;;;;;;5119240;28;20023;-83
2023/01/19 02:51:22;;;;;;;9.63;6.43;;;;;;;;;;5118553;28;20032;-86
2023/01/19 02:54:21;;;;;;;10.18;6.25;;;;;;;;;;5118811;28;20432;-83
2023/01/19 02:57:02;;;;;;;9.55;6.03;;;;;;;;;;5118581;28;20567;-83
2023/01/19 02:59:28;;;;;;;10.35;6.20;;;;;;;;;;5100353;28;20399;-85
2023/01/19 03:02:03;;;;;;;10.95;6.43;;;;;;;;;;5118618;28;20160;-85
2023/01/19 03:04:43;;;;;;;11.23;6.88;;;;;;;;;;5099689;28;20068;-83
2023/01/19 03:07:09;;;;;;;10.95;6.63;;;;;;;;;;5118036;28;20053;-83
2023/01/19 03:09:47;;;;;;;9.57;6.55;;;;;;;;;;5117677;28;20036;-83
2023/01/19 03:12:37;;;;;;;11.70;7.32;;;;;;;;;;5099252;28;20035;-83
2023/01/19 03:15:12;;;;;;;10.70;6.55;;;;;;;;;;5118440;28;20028;-83
2023/01/19 03:17:39;;;;;;;10.15;6.28;;;;;;;;;;5117297;28;20027;-83
2023/01/19 03:20:06;;;;;;;10.13;6.53;;;;;;;;;;5117172;28;20110;-84
2023/01/19 03:22:33;;;;;;;12.48;6.80;;;;;;;;;;5116314;28;20102;-84
2023/01/19 03:25:00;;;;;;;12.98;7.20;;;;;;;;;;5097769;28;20036;-83
2023/01/19 03:27:30;;;;;;;13.30;7.90;;;;;;;;;;5116066;28;20058;-83
2023/01/19 03:30:00;;;;;;;12.88;7.50;;;;;;;;;;5080903;28;20406;-85
2023/01/19 03:32:34;;;;;;;14.23;7.60;;;;;;;;;;5097454;28;20050;-85
2023/01/19 03:35:05;;;;;;;10.82;6.70;;;;;;;;;;5115313;28;20034;-82
2023/01/19 03:37:32;;;;;;;11.32;6.97;;;;;;;;;;5115631;28;20031;-81
2023/01/19 03:39:57;;;;;;;12.07;7.00;;;;;;;;;;5111476;28;20088;-86
2023/01/19 03:42:24;;;;;;;15.65;7.65;;;;;;;;;;5120510;28;20043;-83
2023/01/19 03:44:54;;;;;;;12.50;7.05;;;;;;;;;;5120506;28;20044;-84
2023/01/19 03:47:21;;;;;;;13.80;6.78;;;;;;;;;;5109436;28;20047;-85
2023/01/19 03:49:49;;;;;;;13.00;7.18;;;;;;;;;;5100724;28;20035;-84
2023/01/19 03:52:14;;;;;;;14.63;7.28;;;;;;;;;;5115893;28;20043;-84
2023/01/19 03:54:40;;;;;;;13.23;7.10;;;;;;;;;;5115902;28;20408;-84
2023/01/19 03:57:05;;;;;;;12.77;7.10;;;;;;;;;;5098028;28;20040;-85
2023/01/19 03:59:31;;;;;;;10.65;6.53;;;;;;;;;;5116351;28;20050;-84
2023/01/19 04:01:57;;;;;;;11.27;6.30;;;;;;;;;;5116246;28;20073;-84
2023/01/19 04:04:24;;;;;;;10.52;6.13;;;;;;;;;;5116001;28;20085;-84
2023/01/19 04:06:56;;;;;;;14.85;6.80;;;;;;;;;;5097311;28;20093;-84
2023/01/19 04:09:21;;;;;;;11.63;6.10;;;;;;;;;;5115760;28;20039;-84
2023/01/19 04:11:47;;;;;;;16.55;6.45;;;;;;;;;;5116000;28;20105;-83
2023/01/19 04:14:12;;;;;;;10.52;6.40;;;;;;;;;;5115771;28;20572;-83
2023/01/19 04:16:38;;;;;;;11.57;5.97;;;;;;;;;;5120025;28;20039;-81
2023/01/19 04:19:04;;;;;;;10.23;5.88;;;;;;;;;;5124049;28;20044;-84
2023/01/19 04:21:29;;;;;;;12.25;6.15;;;;;;;;;;5132984;22;20035;-81
2023/01/19 04:23:55;;;;;;;12.23;6.53;;;;;;;;;;5124102;28;20063;-82
2023/01/19 04:26:20;;;;;;;9.73;5.70;;;;;;;;;;5106526;28;20031;-82
2023/01/19 04:28:46;;;;;;;13.32;6.22;;;;;;;;;;5125624;28;20066;-82
2023/01/19 04:31:11;;;;;;;12.65;6.55;;;;;;;;;;5107298;28;20040;-82
2023/01/19 04:33:37;;;;;;;13.20;6.40;;;;;;;;;;5125161;28;20034;-81
2023/01/19 04:36:02;;;;;;;10.40;5.90;;;;;;;;;;5124623;28;20040;-83
2023/01/19 04:38:28;;;;;;;11.63;5.82;;;;;;;;;;5106912;28;20039;-82
2023/01/19 04:40:54;;;;;;;11.82;5.60;;;;;;;;;;5106387;28;20044;-82
2023/01/19 04:43:20;;;;;;;9.90;6.00;;;;;;;;;;5107013;28;20031;-82
2023/01/19 04:45:46;;;;;;;9.68;5.93;;;;;;;;;;5124506;28;20028;-82
2023/01/19 04:48:13;;;;;;;10.85;6.03;;;;;;;;;;5123540;28;20031;-82
2023/01/19 04:50:38;;;;;;;11.88;6.93;;;;;;;;;;5103576;28;20394;-82
2023/01/19 04:53:04;;;;;;;9.63;5.63;;;;;;;;;;5122825;28;20035;-81
2023/01/19 04:55:29;;;;;;;11.77;6.07;;;;;;;;;;5122309;28;20381;-82
2023/01/19 04:57:55;;;;;;;12.02;5.95;;;;;;;;;;5123071;28;20035;-82
2023/01/19 05:00:22;;;;;;;14.77;7.18;;;;;;;;;;5125787;28;20102;-82
2023/01/19 05:02:47;;;;;;;11.73;6.55;;;;;;;;;;5125311;28;20031;-82
2023/01/19 05:05:13;;;;;;;11.18;7.03;;;;;;;;;;5107198;28;20510;-81
2023/01/19 05:07:39;;;;;;;14.32;7.32;;;;;;;;;;5125730;28;20100;-81
2023/01/19 05:10:05;;;;;;;12.40;7.10;;;;;;;;;;5125637;28;20216;-82
2023/01/19 05:12:31;;;;;;;12.18;7.07;;;;;;;;;;5126205;28;20036;-82
2023/01/19 05:14:57;;;;;;;15.02;7.75;;;;;;;;;;5125643;28;20035;-82
2023/01/19 05:17:22;;;;;;;9.82;6.20;;;;;;;;;;5126183;28;20036;-81
2023/01/19 05:19:48;;;;;;;9.65;5.88;;;;;;;;;;5107331;28;20035;-82
2023/01/19 05:22:14;;;;;;;12.50;6.95;;;;;;;;;;5107737;28;20484;-81
2023/01/19 05:24:40;;;;;;;11.93;7.05;;;;;;;;;;5121405;28;20115;-80
2023/01/19 05:27:05;;;;;;;14.57;8.02;;;;;;;;;;5107054;28;20061;-82
2023/01/19 05:29:40;;;;;;;12.15;7.20;;;;;;;;;;5109344;28;20050;-82
2023/01/19 05:32:06;;;;;;;12.75;6.47;;;;;;;;;;5125957;28;20080;-81
2023/01/19 05:34:31;;;;;;;14.27;7.22;;;;;;;;;;5125284;28;20036;-82
2023/01/19 05:36:57;;;;;;;10.60;6.18;;;;;;;;;;5125582;28;20054;-82
2023/01/19 05:39:22;;;;;;;13.45;6.05;;;;;;;;;;5106443;28;20090;-82
2023/01/19 05:41:47;;;;;;;13.70;6.65;;;;;;;;;;5125770;28;20031;-83
2023/01/19 05:44:13;;;;;;;10.02;5.95;;;;;;;;;;5125358;28;20043;-82
2023/01/19 05:46:39;;;;;;;13.63;5.95;;;;;;;;;;5125174;28;20024;-82
2023/01/19 05:49:06;;;;;;;12.38;6.63;;;;;;;;;;5125888;28;20032;-82
2023/01/19 05:51:36;;;;;;;9.38;5.60;;;;;;;;;;5125886;28;20036;-82
2023/01/19 05:54:05;;;;;;;9.55;5.60;;;;;;;;;;5125096;28;20034;-81
2023/01/19 05:56:32;;;;;;;8.35;5.25;;;;;;;;;;5106042;28;20047;-82
2023/01/19 05:58:58;;;;;;;9.23;5.65;;;;;;;;;;5123777;28;20040;-82
2023/01/19 06:01:24;;;;;;;10.52;5.70;;;;;;;;;;5125605;28;20028;-81
2023/01/19 06:03:49;;;;;;;9.77;5.90;;;;;;;;;;5105403;28;20105;-83
2023/01/19 06:06:15;;;;;;;10.70;6.40;;;;;;;;;;5124259;28;20116;-81
2023/01/19 06:08:41;;;;;;;9.48;5.68;;;;;;;;;;5124409;28;20533;-80
2023/01/19 06:11:06;;;;;;;11.48;5.90;;;;;;;;;;5125207;28;20031;-82
2023/01/19 06:13:33;;;;;;;11.15;5.88;;;;;;;;;;5106185;28;20035;-82
2023/01/19 06:16:00;;;;;;;10.50;5.50;;;;;;;;;;5124299;28;20057;-82
2023/01/19 06:18:26;;;;;;;9.00;5.05;;;;;;;;;;5106219;28;20069;-82
2023/01/19 06:20:57;;;;;;;8.85;4.90;;;;;;;;;;5125133;28;20064;-81
2023/01/19 06:23:29;;;;;;;7.78;4.93;;;;;;;;;;5124385;28;20400;-81
2023/01/19 06:25:54;;;;;;;8.20;5.10;;;;;;;;;;5124252;28;20088;-82
2023/01/19 06:28:21;;;;;;;8.63;4.38;;;;;;;;;;5124632;28;20491;-82
2023/01/19 06:30:51;;;;;;;7.97;4.70;;;;;;;;;;5124091;28;20129;-82
2023/01/19 06:33:17;;;;;;;9.05;4.43;;;;;;;;;;5124114;28;20035;-81
2023/01/19 06:35:44;;;;;;;8.35;4.55;;;;;;;;;;5123945;28;20027;-82
2023/01/19 06:38:09;;;;;;;7.72;4.55;;;;;;;;;;5123854;28;20065;-82
2023/01/19 06:40:35;;;;;;;10.18;5.78;;;;;;;;;;5105151;28;20071;-82
2023/01/19 06:43:00;;;;;;;7.75;4.38;;;;;;;;;;5123689;28;20081;-82
2023/01/19 06:45:26;;;;;;;8.68;4.20;;;;;;;;;;5105823;28;20039;-82
2023/01/19 06:47:55;;;;;;;10.05;4.55;;;;;;;;;;5114939;28;20035;-80
2023/01/19 06:50:21;;;;;;;7.10;4.38;;;;;;;;;;5114364;28;20031;-80
2023/01/19 06:52:52;;;;;;;8.20;3.92;;;;;;;;;;5114442;28;20039;-80
2023/01/19 06:55:18;;;;;;;10.30;5.53;;;;;;;;;;5117254;28;20035;-81
2023/01/19 06:57:43;;;;;;;9.70;5.25;;;;;;;;;;5103112;28;20071;-82
2023/01/19 07:00:11;;;;;;;9.13;5.03;;;;;;;;;;5121933;28;20031;-82
2023/01/19 07:02:41;;;;;;;8.32;4.95;;;;;;;;;;5122095;28;20047;-81
2023/01/19 07:05:08;;;;;;;8.52;4.70;;;;;;;;;;5120699;28;20055;-81
2023/01/19 07:07:34;;;;;;;8.25;4.90;;;;;;;;;;5101218;28;20032;-81
2023/01/19 07:09:59;;;;;;;7.75;4.80;;;;;;;;;;5120277;28;20058;-80
2023/01/19 07:12:25;;;;;;;6.95;4.35;;;;;;;;;;5119663;28;20039;-81
2023/01/19 07:14:51;;;;;;;9.88;4.78;;;;;;;;;;5120946;28;20160;-81
2023/01/19 07:17:18;;;;;;;13.13;5.97;;;;;;;;;;5122576;28;20024;-80
2023/01/19 07:19:44;;;;;;;10.93;5.90;;;;;;;;;;5120176;28;20031;-80
2023/01/19 07:22:09;;;;;;;13.90;6.10;;;;;;;;;;5127288;28;20042;-82
2023/01/19 07:24:36;;;;;;;8.70;4.60;;;;;;;;;;5126571;28;20107;-82
2023/01/19 07:27:03;;;;;;;11.85;5.97;;;;;;;;;;5108298;28;20036;-82
2023/01/19 07:29:28;;;;;;;10.40;4.97;;;;;;;;;;5107432;28;20071;-81
2023/01/19 07:31:54;;;;;;;12.55;6.28;;;;;;;;;;5127145;28;20039;-84
2023/01/19 07:34:20;;;;;;;9.60;5.45;;;;;;;;;;5108430;28;20073;-83
2023/01/19 07:36:46;;;;;;;12.38;6.03;;;;;;;;;;5125808;28;20503;-83
2023/01/19 07:39:12;;;;;;;14.07;6.53;;;;;;;;;;5127219;28;20031;-81
2023/01/19 07:41:37;;;;;;;10.38;5.00;;;;;;;;;;5127123;28;20488;-80
2023/01/19 07:44:06;;;;;;;8.32;5.00;;;;;;;;;;5104360;28;20125;-80
2023/01/19 07:46:31;;;;;;;11.68;6.63;;;;;;;;;;5123767;28;20031;-81
2023/01/19 07:48:57;;;;;;;11.52;6.20;;;;;;;;;;5125921;28;20095;-81
2023/01/19 07:51:22;;;;;;;7.15;5.05;;;;;;;;;;5086941;28;20146;-82
2023/01/19 07:53:51;;;;;;;9.73;4.75;;;;;;;;;;5123714;28;20036;-83
2023/01/19 07:56:16;;;;;;;9.32;4.95;;;;;;;;;;5126795;28;20032;-82
2023/01/19 07:58:42;;;;;;;10.18;5.53;;;;;;;;;;5127726;28;20050;-82
2023/01/19 08:01:09;;;;;;;11.95;5.88;;;;;;;;;;5127758;28;20415;-82
2023/01/19 08:03:34;;;;;;;11.25;5.35;;;;;;;;;;5091932;28;20122;-82
2023/01/19 08:06:01;;;;;;;9.07;4.53;;;;;;;;;;5108303;28;20491;-83
2023/01/19 08:08:29;;;;;;;12.65;5.05;;;;;;;;;;5108167;28;20046;-84
2023/01/19 08:10:54;;;;;;;9.05;5.30;;;;;;;;;;5126501;28;20032;-83
2023/01/19 08:13:20;;;;;;;10.20;4.93;;;;;;;;;;5125015;28;20050;-82
2023/01/19 08:15:50;;;;;;;10.30;5.25;;;;;;;;;;5124827;28;20027;-81
2023/01/19 08:18:16;;;;;;;10.30;5.20;;;;;;;;;;5125336;28;20035;-82
2023/01/19 08:20:42;;;;;;;11.80;6.53;;;;;;;;;;5125465;28;20129;-84
2023/01/19 08:23:07;;;;;;;16.30;7.28;;;;;;;;;;5124136;28;20035;-84
2023/01/19 08:25:43;;;;;;;11.95;6.30;;;;;;;;;;5101754;28;20028;-82
2023/01/19 08:28:10;;;;;;;10.82;6.00;;;;;;;;;;5119627;28;20031;-81
2023/01/19 08:30:37;;;;;;;9.63;5.72;;;;;;;;;;5119594;28;20039;-81
2023/01/19 08:33:02;;;;;;;10.60;4.68;;;;;;;;;;5120685;28;20107;-80
2023/01/19 08:35:33;;;;;;;9.82;5.47;;;;;;;;;;5123166;28;20032;-81
2023/01/19 08:38:00;;;;;;;8.90;5.40;;;;;;;;;;5122554;28;20031;-80
2023/01/19 08:40:44;;;;;;;8.50;5.57;;;;;;;;;;5085809;28;20118;-81
2023/01/19 08:43:14;;;;;;;10.73;5.45;;;;;;;;;;5121114;28;20031;-80
2023/01/19 08:45:48;;;;;;;8.15;5.00;;;;;;;;;;5121374;28;20038;-80
2023/01/19 08:48:16;;;;;;;9.45;5.47;;;;;;;;;;5120528;28;20104;-81
2023/01/19 08:50:45;;;;;;;10.38;5.57;;;;;;;;;;5123550;28;20053;-81
2023/01/19 08:53:10;;;;;;;8.85;4.85;;;;;;;;;;5120742;28;20088;-81
2023/01/19 08:55:36;;;;;;;6.93;4.40;;;;;;;;;;5102859;28;20453;-80
2023/01/19 08:58:02;;;;;;;6.95;4.57;;;;;;;;;;5103706;28;20046;-81
2023/01/19 09:00:30;;;;;;;9.85;4.53;;;;;;;;;;5123102;28;20116;-81
2023/01/19 09:02:56;;;;;;;8.95;4.60;;;;;;;;;;5119462;28;20042;-79
2023/01/19 09:05:21;;;;;;;7.50;4.80;;;;;;;;;;5118739;28;20114;-80
2023/01/19 09:07:47;;;;;;;9.68;4.70;;;;;;;;;;5119795;28;20046;-81
2023/01/19 09:10:14;;;;;;;7.97;4.30;;;;;;;;;;5100314;28;20031;-80
2023/01/19 09:12:40;;;;;;;7.70;4.60;;;;;;;;;;5084198;28;20035;-82
2023/01/19 09:15:06;;;;;;;8.23;4.50;;;;;;;;;;5118902;28;20416;-81
2023/01/19 09:17:32;;;;;;;10.35;4.07;;;;;;;;;;5100623;28;20032;-82
2023/01/19 09:19:57;;;;;;;8.43;4.20;;;;;;;;;;5118416;28;20041;-82
2023/01/19 09:22:23;;;;;;;9.30;4.45;;;;;;;;;;5117878;28;20118;-81
2023/01/19 09:24:48;;;;;;;7.25;4.53;;;;;;;;;;5099195;28;20035;-80
2023/01/19 09:27:14;;;;;;;6.55;4.18;;;;;;;;;;5109589;28;20032;-81
2023/01/19 09:29:39;;;;;;;6.32;4.05;;;;;;;;;;5061913;28;20472;-80
2023/01/19 09:32:05;;;;;;;6.65;4.25;;;;;;;;;;5097364;28;20028;-81
2023/01/19 09:34:31;;;;;;;8.77;4.20;;;;;;;;;;5080764;28;20036;-81
2023/01/19 09:36:56;;;;;;;8.05;3.88;;;;;;;;;;5101383;28;20073;-79
2023/01/19 09:39:21;;;;;;;6.18;4.00;;;;;;;;;;5100806;28;20089;-80
2023/01/19 09:42:00;;;;;;;6.55;3.67;;;;;;;;;;5100993;28;20085;-80
2023/01/19 09:44:32;;;;;;;7.88;3.90;;;;;;;;;;5102193;28;20036;-80
2023/01/19 09:47:01;;;;;;;5.43;3.80;;;;;;;;;;5100552;28;20089;-81
2023/01/19 09:49:39;;;;;;;6.32;3.92;;;;;;;;;;5099639;28;20076;-77
2023/01/19 09:52:09;;;;;;;9.00;4.35;;;;;;;;;;5083710;28;20044;-80
2023/01/19 09:54:55;;;;;;;8.23;4.20;;;;;;;;;;5097209;28;20039;-81
2023/01/19 09:57:22;;;;;;;7.95;3.97;;;;;;;;;;5096765;28;20035;-79
2023/01/19 09:59:50;;;;;;;10.13;3.72;;;;;;;;;;5098027;28;20396;-81
2023/01/19 10:03:06;;;;;;;7.50;4.00;;;;;;;;;;5104655;28;20085;-82
2023/01/19 10:05:43;;;;;;;6.60;3.58;;;;;;;;;;5039979;28;20075;-81
2023/01/19 10:08:35;;;;;;;8.05;3.85;;;;;;;;;;5105173;28;20040;-81
2023/01/19 10:11:00;;;;;;;6.05;3.42;;;;;;;;;;5066516;28;20089;-81
2023/01/19 10:13:43;;;;;;;6.10;3.50;;;;;;;;;;5105122;28;20039;-81
2023/01/19 10:16:30;;;;;;;6.38;3.53;;;;;;;;;;5084862;28;20613;-81
2023/01/19 10:19:01;;;;;;;7.07;3.55;;;;;;;;;;5104141;28;20522;-80
2023/01/19 10:21:32;;;;;;;5.43;3.28;;;;;;;;;;5086597;28;20092;-81
2023/01/19 10:24:03;;;;;;;5.28;3.35;;;;;;;;;;5105261;23;20100;-83
2023/01/19 10:26:51;;;;;;;7.22;3.70;;;;;;;;;;5097037;28;20035;-83
2023/01/19 10:29:36;;;;;;;7.28;3.47;;;;;;;;;;5097440;28;20039;-85
2023/01/19 10:32:24;;;;;;;5.25;3.30;;;;;;;;;;5115360;28;20038;-83
2023/01/19 10:34:50;;;;;;;6.20;3.20;;;;;;;;;;5094264;28;20105;-85
2023/01/19 10:37:29;;;;;;;6.93;3.72;;;;;;;;;;5095150;28;20107;-84
2023/01/19 10:40:12;;;;;;;5.13;3.30;;;;;;;;;;5095430;28;20040;-83
2023/01/19 10:42:39;;;;;;;8.43;3.63;;;;;;;;;;5076800;28;20043;-84
2023/01/19 10:45:19;;;;;;;7.07;3.53;;;;;;;;;;5094967;28;20055;-85
2023/01/19 10:47:46;;;;;;;5.97;3.70;;;;;;;;;;5095810;28;20036;-86
2023/01/19 10:50:27;;;;;;;7.15;3.55;;;;;;;;;;5098840;28;20032;-83
2023/01/19 10:52:55;;;;;;;7.35;3.40;;;;;;;;;;5099577;28;20036;-83
2023/01/19 10:55:27;;;;;;;7.03;3.78;;;;;;;;;;5081587;28;20074;-83
2023/01/19 10:57:54;;;;;;;6.68;3.63;;;;;;;;;;5099954;28;20499;-83
2023/01/19 11:00:36;;;;;;;7.10;3.35;;;;;;;;;;5100070;28;20132;-83
2023/01/19 11:03:04;;;;;;;6.28;3.25;;;;;;;;;;5081379;28;20028;-83
2023/01/19 11:05:32;;;;;;;6.70;3.33;;;;;;;;;;5099868;28;20043;-84
2023/01/19 11:07:58;;;;;;;6.72;3.35;;;;;;;;;;5100822;28;20016;-85
2023/01/19 11:10:28;;;;;;;6.70;3.20;;;;;;;;;;5100479;28;20039;-85
2023/01/19 11:13:01;;;;;;;7.10;3.25;;;;;;;;;;5103978;28;20039;-84
2023/01/19 11:15:33;;;;;;;8.18;3.28;;;;;;;;;;5109361;28;20044;-85
2023/01/19 11:18:01;;;;;;;4.57;3.20;;;;;;;;;;5100219;28;20085;-83
2023/01/19 11:20:42;;;;;;;7.68;3.72;;;;;;;;;;5099242;28;20036;-84
2023/01/19 11:23:26;;;;;;;6.70;3.20;;;;;;;;;;5098100;28;20181;-83
2023/01/19 11:25:53;;;;;;;9.25;3.38;;;;;;;;;;5108601;28;20123;-82
2023/01/19 11:28:40;;;;;;;6.28;3.45;;;;;;;;;;5064319;28;20492;-83
2023/01/19 11:31:18;;;;;;;5.93;3.45;;;;;;;;;;5064671;28;20488;-84
2023/01/19 11:33:53;;;;;;;6.43;3.90;;;;;;;;;;5099365;28;20062;-82
2023/01/19 11:36:22;;;;;;;7.93;3.90;;;;;;;;;;5098998;28;20043;-86
2023/01/19 11:38:51;;;;;;;8.50;3.95;;;;;;;;;;5080690;28;20105;-83
2023/01/19 11:41:30;;;;;;;5.43;3.50;;;;;;;;;;5099720;28;20107;-82
2023/01/19 11:44:14;;;;;;;6.28;3.85;;;;;;;;;;5080700;28;20039;-84
2023/01/19 11:46:43;;;;;;;8.75;4.15;;;;;;;;;;5098118;28;20028;-81
2023/01/19 11:49:18;;;;;;;9.90;3.85;;;;;;;;;;5097456;28;20040;-82
2023/01/19 11:51:49;;;;;;;9.73;3.80;;;;;;;;;;5097963;28;20035;-84
2023/01/19 11:54:22;;;;;;;6.05;4.10;;;;;;;;;;5062872;28;20052;-83
2023/01/19 11:56:50;;;;;;;10.00;4.18;;;;;;;;;;5079711;28;20043;-85
2023/01/19 11:59:17;;;;;;;7.20;3.92;;;;;;;;;;5097927;28;20040;-84
2023/01/19 12:01:49;;;;;;;8.25;4.70;;;;;;;;;;5079491;28;20020;-83
2023/01/19 12:04:43;;;;;;;11.83;3.80;;;;;;;;;;5063140;28;20072;-83
2023/01/19 12:07:11;;;;;;;7.13;4.10;;;;;;;;;;5097885;28;20294;-82
2023/01/19 12:09:43;;;;;;;8.60;4.07;;;;;;;;;;5097309;28;20589;-82
2023/01/19 12:12:27;;;;;;;7.97;4.43;;;;;;;;;;5079106;28;20541;-82
2023/01/19 12:15:30;;;;;;;8.27;4.43;;;;;;;;;;5097132;28;20025;-82
2023/01/19 12:17:59;;;;;;;7.38;4.70;;;;;;;;;;5098100;28;20044;-85
2023/01/19 12:20:43;;;;;;;7.80;4.63;;;;;;;;;;5096740;28;20043;-84
2023/01/19 12:23:17;;;;;;;8.40;4.38;;;;;;;;;;5097634;28;20089;-84
2023/01/19 12:25:46;;;;;;;8.68;4.50;;;;;;;;;;5097250;28;20051;-84
2023/01/19 12:28:15;;;;;;;5.50;3.35;;;;;;;;;;5062469;28;20526;-88
2023/01/19 12:30:41;;;;;;;7.22;4.22;;;;;;;;;;5079230;28;20070;-88
2023/01/19 12:33:25;;;;;;;8.00;4.72;;;;;;;;;;5097243;28;20028;-87
2023/01/19 12:36:02;;;;;;;6.45;3.90;;;;;;;;;;5078142;28;20039;-86
2023/01/19 12:38:47;;;;;;;7.32;4.22;;;;;;;;;;5077843;28;20095;-86
2023/01/19 12:41:35;;;;;;;7.28;3.90;;;;;;;;;;5077611;28;20407;-86
2023/01/19 12:44:23;;;;;;;6.07;3.53;;;;;;;;;;5086335;28;20484;-87
2023/01/19 12:46:53;;;;;;;6.65;3.72;;;;;;;;;;5097864;28;20028;-87
2023/01/19 12:49:25;;;;;;;5.50;3.50;;;;;;;;;;5063507;28;20034;-87
2023/01/19 12:52:11;;;;;;;6.80;3.97;;;;;;;;;;5063798;28;20058;-86
2023/01/19 12:54:40;;;;;;;8.43;3.63;;;;;;;;;;5080066;28;20089;-89
2023/01/19 12:57:40;;;;;;;8.27;4.00;;;;;;;;;;5080360;28;20028;-87
2023/01/19 13:00:29;;;;;;;7.18;4.00;;;;;;;;;;5079437;28;20032;-87
2023/01/19 13:03:17;;;;;;;8.60;3.78;;;;;;;;;;5097426;28;20109;-86
2023/01/19 13:05:42;;;;;;;5.15;3.40;;;;;;;;;;5097224;28;20377;-87
2023/01/19 13:08:08;;;;;;;7.28;3.53;;;;;;;;;;5098107;28;20043;-88
2023/01/19 13:11:01;;;;;;;5.60;3.40;;;;;;;;;;5062813;28;20027;-87
2023/01/19 13:13:37;;;;;;;6.40;3.85;;;;;;;;;;5079852;28;20031;-86
2023/01/19 13:16:18;;;;;;;6.05;3.35;;;;;;;;;;5079200;28;20484;-86
2023/01/19 13:18:54;;;;;;;6.20;3.97;;;;;;;;;;5079002;28;20060;-87
2023/01/19 13:21:35;;;;;;;8.00;3.55;;;;;;;;;;5084454;28;20044;-84
2023/01/19 13:24:04;;;;;;;6.60;3.72;;;;;;;;;;5097437;28;20055;-85
2023/01/19 13:26:34;;;;;;;7.97;3.85;;;;;;;;;;5078848;28;20119;-84
2023/01/19 13:29:09;;;;;;;7.53;3.63;;;;;;;;;;5096935;28;20039;-84
2023/01/19 13:31:37;;;;;;;7.13;2.97;;;;;;;;;;5078855;28;20040;-86
2023/01/19 13:34:08;;;;;;;5.28;3.30;;;;;;;;;;5096260;28;20064;-85
2023/01/19 13:36:36;;;;;;;6.10;2.97;;;;;;;;;;5097975;28;20039;-83
2023/01/19 13:39:05;;;;;;;5.25;2.80;;;;;;;;;;5079134;28;20035;-84
2023/01/19 13:41:36;;;;;;;5.15;3.08;;;;;;;;;;5096520;28;20032;-86
2023/01/19 13:44:23;;;;;;;6.45;2.90;;;;;;;;;;5077489;28;20504;-83
2023/01/19 13:46:50;;;;;;;4.85;3.13;;;;;;;;;;5095723;28;20515;-86
2023/01/19 13:49:27;;;;;;;5.57;3.40;;;;;;;;;;5076455;28;20028;-87
2023/01/19 13:52:06;;;;;;;6.28;3.50;;;;;;;;;;5076213;28;20385;-84
2023/01/19 13:54:31;;;;;;;6.65;3.60;;;;;;;;;;5093098;28;20036;-86
2023/01/19 13:56:57;;;;;;;6.53;3.42;;;;;;;;;;5075070;28;20056;-84
2023/01/19 13:59:22;;;;;;;5.75;3.30;;;;;;;;;;5104441;28;20043;-83
2023/01/19 14:01:49;;;;;;;5.75;3.40;;;;;;;;;;5078574;28;20032;-85
2023/01/19 14:04:30;;;;;;;10.43;4.82;;;;;;;;;;5096043;28;20028;-84
2023/01/19 14:07:01;;;;;;;6.50;3.78;;;;;;;;;;5077848;28;20113;-85
2023/01/19 14:09:26;;;;;;;7.97;4.95;;;;;;;;;;5096304;28;20537;-86
2023/01/19 14:12:04;;;;;;;7.63;3.92;;;;;;;;;;5096300;28;20063;-84
2023/01/19 14:14:30;;;;;;;8.32;3.88;;;;;;;;;;5077750;28;20495;-86
2023/01/19 14:16:55;;;;;;;6.32;3.70;;;;;;;;;;5078121;28;20029;-85
2023/01/19 14:19:21;;;;;;;7.53;3.90;;;;;;;;;;5079259;28;20035;-87
2023/01/19 14:21:58;;;;;;;18.65;11.13;;;;;;;;;;5078506;28;20070;-86
2023/01/19 14:24:28;;;;;;;143.02;48.88;;;;;;;;;;5097312;28;20058;-86
2023/01/19 14:27:17;;;;;;;11.68;6.28;;;;;;;;;;5083999;28;20453;-87
2023/01/19 14:29:44;;;;;;;7.13;4.38;;;;;;;;;;5096780;28;20031;-86
2023/01/19 14:32:18;;;;;;;6.30;3.55;;;;;;;;;;5077838;28;20517;-86
2023/01/19 14:35:02;;;;;;;6.85;3.70;;;;;;;;;;5094343;28;20031;-84
2023/01/19 14:37:31;;;;;;;7.80;4.00;;;;;;;;;;5095556;28;20039;-84
2023/01/19 14:40:06;;;;;;;8.57;4.57;;;;;;;;;;5095538;28;20545;-86
2023/01/19 14:42:37;;;;;;;9.88;5.70;;;;;;;;;;5075889;28;20067;-87
2023/01/19 14:45:12;;;;;;;7.90;3.75;;;;;;;;;;5058638;28;20036;-86
2023/01/19 14:47:41;;;;;;;7.57;4.05;;;;;;;;;;5056699;28;20036;-86
2023/01/19 14:50:19;;;;;;;6.85;4.10;;;;;;;;;;5082195;28;20048;-86
2023/01/19 14:53:00;;;;;;;7.47;3.53;;;;;;;;;;5078359;28;20127;-85
2023/01/19 14:55:45;;;;;;;7.05;3.85;;;;;;;;;;5078287;28;20032;-85
2023/01/19 14:58:13;;;;;;;7.85;3.97;;;;;;;;;;5060921;28;20502;-85
2023/01/19 15:00:39;;;;;;;8.13;4.07;;;;;;;;;;5079773;28;20041;-84
2023/01/19 15:03:05;;;;;;;7.68;3.90;;;;;;;;;;5079217;28;20036;-85